Metar Cercanos

 

LEPA - Palma De Mallorc, Spain
Distance from station: ONO 38km
Actualización: 24/07/2017 18:00
Parcialmente nuboso
Parcialmente nuboso
 Viento del NO
Viento: NO 26 km/h
Temperatura: 32°C
Rocío: 14°C
Humedad: 33%
Barómetro: 1014 hPa
Clouds: Parcialmente nuboso
Visibility: 10 km
Cloud details: Parcialmente nuboso 914 m
2017/07/24 16:00 LEPA 241600Z 32014KT 290V360 9999 SCT030 32/14 Q1014 NOSIG
LEMH - Mahon/Menorca Is, Spain
Distance from station: ENE 105km
Actualización: 24/07/2017 18:00
Few Clouds
Few Clouds
 Viento del SO
Viento: SO 17 km/h
Temperatura: 27°C
Indice Calor: 29°C
Rocío: 21°C
Humedad: 70%
Barómetro: 1014 hPa
Clouds: Few Clouds
Visibility: 10 km
Cloud details: Few Clouds 762 m
Few Clouds 914 m
2017/07/24 16:00 LEMH 241600Z 22009KT 190V260 9999 FEW025 FEW030TCU 27/21 Q1014
 
LEIB - Ibiza/Es Codola, Spain
Distance from station: OSO 165km
Actualización: 24/07/2017 18:00
Few Clouds
Few Clouds
 Viento del E
Viento: E 13 km/h
Temperatura: 30°C
Indice Calor: 33°C
Rocío: 22°C
Humedad: 62%
Barómetro: 1014 hPa
Clouds: Few Clouds
Visibility: 10 km
Cloud details: Few Clouds 823 m
2017/07/24 16:00 LEIB 241600Z 08007KT 050V140 9999 FEW027 30/22 Q1014 NOSIG
LEBL - Barcelona Airpor, Spain
Distance from station: NNO 225km
Actualización: 24/07/2017 18:00
Few Clouds
Few Clouds
 Viento del E
Viento: E 26 km/h
Temperatura: 28°C
Indice Calor: 29°C
Rocío: 19°C
Humedad: 58%
Barómetro: 1013 hPa
Clouds: Few Clouds
Visibility: 10 km
Cloud details: Few Clouds 914 m
2017/07/24 16:00 LEBL 241600Z 08014KT 9999 FEW030 28/19 Q1013 NOSIG
 
LEVC - Valencia (civ/Mi, Spain
Distance from station: NO 188km
Actualización: 24/07/2017 18:00
Few Clouds
Few Clouds
 Viento del SE
Viento: SE 19 km/h
Temperatura: 30°C
Indice Calor: 30°C
Rocío: 16°C
Humedad: 43%
Barómetro: 1014 hPa
Clouds: Few Clouds
Visibility: 10 km
Cloud details: Few Clouds 914 m
2017/07/24 16:00 LEVC 241600Z 13010KT 100V160 9999 FEW030 30/16 Q1014 NOSIG
LEGE - Gerona/Costa Bra, Spain
Distance from station: N 276km
Actualización: 24/07/2017 18:00
Few Clouds
Few Clouds
 Viento del SE
Viento: SE 13 km/h
Temperatura: 26°C
Rocío: 18°C
Humedad: 61%
Barómetro: 1014 hPa
Clouds: Few Clouds
Visibility: 10 km
Cloud details: Few Clouds 914 m
Muy nuboso 1524 m
Few Clouds 1676 m
2017/07/24 16:00 LEGE 241600Z 13007KT 080V160 9999 FEW030 BKN050 FEW055TCU 26/18 Q1014
 
LEAL - Alicante/El Alte, Spain
Distance from station: OSO 344km
Actualización: 24/07/2017 18:00
Few Clouds
Few Clouds
 Viento del ESE
Viento: ESE 13 km/h
Temperatura: 29°C
Indice Calor: 32°C
Rocío: 22°C
Humedad: 66%
Barómetro: 1015 hPa
Clouds: Few Clouds
Visibility: 10 km
Cloud details: Few Clouds 610 m
2017/07/24 16:00 LEAL 241600Z 12007KT 080V200 9999 FEW020 29/22 Q1015 NOSIG
LEAM - Almeria Airport, Spain
Distance from station: SSO 56km
Actualización: 24/07/2017 18:00
Despejado
Despejado
 Viento del SSO
Viento: SSO 6 km/h
Temperatura: 27°C
Indice Calor: 29°C
Rocío: 21°C
Humedad: 70%
Barómetro: 1014 hPa
Resumen: Despejado
Visibility: greater than 10 km
2017/07/24 16:00 LEAM 241600Z 20003KT 130V250 CAVOK 27/21 Q1014
 
LEZG - Zaragoza (mil/Ci, Spain
Distance from station: NO 431km
Actualización: 24/07/2017 18:00
Few Clouds
Few Clouds
 Viento del NO
Viento: NO 39 km/h
Temperatura: 28°C
Rocío: 12°C
Humedad: 37%
Barómetro: 1018 hPa
Clouds: Few Clouds
Visibility: 10 km
Cloud details: Few Clouds 1219 m
2017/07/24 16:00 LEZG 241600Z 32021KT 9999 FEW040 28/12 Q1018
LEMD - Madrid/Barajas, Spain
Distance from station: ONO 234km
Actualización: 24/07/2017 18:00
Despejado
Despejado
 Viento del N
Viento: N 9 km/h
Temperatura: 32°C
Rocío: 9°C
Humedad: 24%
Barómetro: 1018 hPa
Resumen: Despejado
Visibility: greater than 10 km
2017/07/24 16:00 LEMD 241600Z 36005KT 300V040 CAVOK 32/09 Q1018 NOSIG
 
LEGR - Granada Airport, Spain
Distance from station: OSO 62km
Actualización: 24/07/2017 18:00
Despejado
Despejado
 Viento del O
Viento: O 20 km/h
Temperatura: 37°C
Rocío: 4°C
Humedad: 13%
Barómetro: 1016 hPa
Resumen: Despejado
Visibility: greater than 10 km
2017/07/24 16:00 LEGR 241600Z 28011KT CAVOK 37/04 Q1016
LEMG - Malaga (civ/Mil), Spain
Distance from station: OSO 227km
Actualización: 24/07/2017 18:00
Despejado
Despejado
 Viento del ESE
Viento: ESE 9 km/h
Temperatura: 25°C
Rocío: 19°C
Humedad: 69%
Barómetro: 1013 hPa
Resumen: Despejado
Visibility: greater than 10 km
2017/07/24 16:00 LEMG 241600Z 11005KT 060V160 CAVOK 25/19 Q1013 NOSIG
 
LEZL - Sevilla (civ/Mil, Spain
Distance from station: S 318km
Actualización: 24/07/2017 18:00
Despejado
Despejado
 Viento del SO
Viento: SO 24 km/h
Temperatura: 37°C
Rocío: 12°C
Humedad: 22%
Barómetro: 1013 hPa
Resumen: Despejado
Visibility: greater than 10 km
2017/07/24 16:00 LEZL 241600Z 22013KT 180V250 CAVOK 37/12 Q1013 NOSIG
LEVT - Vitoria, Spain
Distance from station: NO 226km
Actualización: 24/07/2017 18:00
Muy nuboso
Muy nuboso
 Viento del NO
Viento: NO 30 km/h
Temperatura: 19°C
Rocío: 14°C
Humedad: 73%
Barómetro: 1024 hPa
Clouds: Muy nuboso
Visibility: 10 km
Cloud details: Few Clouds 457 m
Muy nuboso 1067 m
2017/07/24 16:00 LEVT 241600Z 32016KT 300V010 9999 FEW015 BKN035 19/14 Q1024
 
LEBB - Bilbao/Sondica, Spain
Distance from station: NNO 235km
Actualización: 24/07/2017 18:00
Light drizzle, Muy nuboso
Light drizzle, Muy nuboso
 Viento del NO
Viento: NO 15 km/h
Temperatura: 19°C
Rocío: 19°C
Humedad: 100%
Barómetro: 1024 hPa
Resumen: Light Drizzle
Clouds: Muy nuboso
Visibility: 8 km
Cloud details: Few Clouds 213 m
Muy nuboso 610 m
Muy nuboso 1067 m
2017/07/24 16:00 LEBB 241600Z 32008KT 8000 -DZ FEW007 BKN020 BKN035 19/19 Q1024 REDZ TEMPO 3000 -RA
LESO - San Sebastian/Fu, Spain
Distance from station: N 231km
Actualización: 24/07/2017 18:00
Muy nuboso
Muy nuboso
 Viento del ONO
Viento: ONO 7 km/h
Temperatura: 19°C
Rocío: 19°C
Humedad: 100%
Barómetro: 1023 hPa
Clouds: Muy nuboso
Visibility: 10 km
Cloud details: Few Clouds 213 m
Parcialmente nuboso 427 m
Muy nuboso 701 m
2017/07/24 16:00 LESO 241600Z 30004KT 240V030 9999 FEW007 SCT014 BKN023 19/19 Q1023
 
LEVD - Valladolid(Mil/C, Spain
Distance from station: ONO 239km
Actualización: 24/07/2017 18:00
Despejado
Despejado
 Viento del NO
Viento: NO 20 km/h, Racha: 41 km/h
Temperatura: 28°C
Rocío: 5°C
Humedad: 23%
Barómetro: 1022 hPa
Resumen: Despejado
Visibility: greater than 10 km
2017/07/24 16:00 LEVD 241600Z 32011G22KT CAVOK 28/05 Q1022
LESA - Salamanca (civ/M, Spain
Distance from station: ONO 349km
Actualización: 24/07/2017 18:00
Despejado
Despejado
 Viento del N
Viento: N 11 km/h
Temperatura: 29°C
Rocío: 6°C
Humedad: 23%
Barómetro: 1021 hPa
Resumen: Despejado
Visibility: greater than 10 km
2017/07/24 16:00 LESA 241600Z 01006KT 310V060 CAVOK 29/06 Q1021
 
LEXJ - Santander/Paraya, Spain
Distance from station: NNO 247km
Actualización: 24/07/2017 18:00
Lluvia débil, Muy nuboso
Lluvia débil, Muy nuboso
 Viento del NO
Viento: NO 15 km/h
Temperatura: 18°C
Rocío: 17°C
Humedad: 94%
Barómetro: 1024 hPa
Resumen: Lluvia débil
Clouds: Muy nuboso
Visibility: 7 km
Cloud details: Parcialmente nuboso 396 m
Muy nuboso 732 m
2017/07/24 16:00 LEXJ 241600Z 32008KT 280V010 7000 -RA SCT013 BKN024 18/17 Q1024
LEAS - Asturias/Aviles, Spain
Distance from station: NO 214km
Actualización: 24/07/2017 18:00
Parcialmente nuboso
Parcialmente nuboso
 Viento del NO
Viento: NO 11 km/h
Temperatura: 18°C
Rocío: 16°C
Humedad: 88%
Barómetro: 1026 hPa
Clouds: Parcialmente nuboso
Visibility: 9 km
Cloud details: Few Clouds 152 m
Parcialmente nuboso 366 m
2017/07/24 16:00 LEAS 241600Z 32006KT 290V010 9000 FEW005 SCT012 18/16 Q1026 TEMPO DZ BKN010
 
LECO - La Coruna/Alvedr, Spain
Distance from station: ONO 222km
Actualización: 24/07/2017 18:00
Muy nuboso
Muy nuboso
 Viento del N
Viento: N 15 km/h
Temperatura: 20°C
Rocío: 14°C
Humedad: 69%
Barómetro: 1026 hPa
Clouds: Muy nuboso
Visibility: 10 km
Cloud details: Parcialmente nuboso 884 m
Muy nuboso 1036 m
2017/07/24 16:00 LECO 241600Z 36008KT 320V050 9999 SCT029 BKN034 20/14 Q1026 NOSIG
LEVX - Vigo/Peinador, Spain
Distance from station: O 214km
Actualización: 24/07/2017 18:00
Despejado
Despejado
 Viento del N
Viento: N 24 km/h
Temperatura: 25°C
Rocío: 14°C
Humedad: 51%
Barómetro: 1024 hPa
Resumen: Despejado
Visibility: greater than 10 km
2017/07/24 16:00 LEVX 241600Z 36013KT 320V030 CAVOK 25/14 Q1024 NOSIG